Aviation Digital Data Service (ADDS)

Output produced by METARs form (0824 UTC 27 September 2020)
found at http://aviationweather.gov/metar/data/
 
METAR text: KARR 270752Z AUTO 19011KT 10SM CLR 19/16 A2968 RMK AO2 SLP046 T01940161
Conditions at: KARR (CHICAGO/AURORA , IL, US) observed 0752 UTC 27 September 2020
Temperature: 19.4°C (67°F)
Dewpoint: 16.1°C (61°F) [RH = 81%]
Pressure (altimeter): 29.68 inches Hg (1005.2 mb)
[Sea-level pressure: 1004.6 mb]
Winds: from the S (190 degrees) at 13 MPH (11 knots; 5.7 m/s)
Visibility: 10 or more miles (16+ km)
Ceiling: at least 12,000 feet AGL
Clouds: sky clear below 12,000 feet AGL
Weather: automated observation with no human augmentation;
there may or may not be significant weather present at this time